createdAt,value
2019-04-26T00:00:15.916Z,0.80
2019-04-26T00:02:54.251Z,1.30
2019-04-26T00:05:33.949Z,1.00
2019-04-26T00:07:54.950Z,0.87
2019-04-26T00:11:01.287Z,1.03
2019-04-26T00:13:38.706Z,1.20
2019-04-26T00:16:27.238Z,1.30
2019-04-26T00:18:56.548Z,1.10
2019-04-26T00:21:25.709Z,0.90
2019-04-26T00:23:55.658Z,1.00
2019-04-26T00:26:25.086Z,1.20
2019-04-26T00:28:54.224Z,1.00
2019-04-26T00:31:23.991Z,1.20
2019-04-26T00:33:53.115Z,1.10
2019-04-26T00:36:22.865Z,1.00
2019-04-26T00:38:52.095Z,1.57
2019-04-26T00:41:22.678Z,1.40
2019-04-26T00:43:52.606Z,1.00
2019-04-26T00:46:25.230Z,1.20
2019-04-26T00:48:56.554Z,1.27
2019-04-26T00:51:25.687Z,1.60
2019-04-26T00:53:55.611Z,1.07
2019-04-26T00:56:25.838Z,1.50
2019-04-26T00:58:55.716Z,1.60
2019-04-26T01:01:26.962Z,1.33
2019-04-26T01:03:56.095Z,1.47
2019-04-26T01:06:27.885Z,1.53
2019-04-26T01:08:56.994Z,1.57
2019-04-26T01:11:28.497Z,2.40
2019-04-26T01:13:57.911Z,1.90
2019-04-26T01:16:27.439Z,1.50
2019-04-26T01:18:57.868Z,1.63
2019-04-26T01:21:30.007Z,1.70
2019-04-26T01:24:01.295Z,1.53
2019-04-26T01:26:33.807Z,1.87
2019-04-26T01:29:08.902Z,1.70
2019-04-26T01:31:45.289Z,1.43
2019-04-26T01:34:14.411Z,1.90
2019-04-26T01:36:45.218Z,2.77
2019-04-26T01:39:19.719Z,2.30
2019-04-26T01:41:56.927Z,2.07
2019-04-26T01:44:50.100Z,2.07
2019-04-26T01:47:20.777Z,2.10
2019-04-26T01:49:50.322Z,2.33
2019-04-26T01:52:19.442Z,2.10
2019-04-26T01:54:48.659Z,1.83
2019-04-26T01:57:18.289Z,1.90
2019-04-26T01:59:52.517Z,2.30
2019-04-26T02:02:43.819Z,2.40
2019-04-26T02:05:18.129Z,2.97
2019-04-26T02:07:47.947Z,2.53
2019-04-26T02:10:20.193Z,2.37
2019-04-26T02:12:50.523Z,2.27
2019-04-26T02:15:24.106Z,2.20
2019-04-26T02:17:56.178Z,1.93
2019-04-26T02:21:11.438Z,2.20
2019-04-26T02:23:47.215Z,2.07
2019-04-26T02:26:45.002Z,2.20
2019-04-26T02:29:20.477Z,2.10
2019-04-26T02:31:55.772Z,2.53
2019-04-26T02:34:27.956Z,2.53
2019-04-26T02:36:59.632Z,3.73
2019-04-26T02:39:34.116Z,2.97
2019-04-26T02:42:07.249Z,2.63
2019-04-26T02:44:47.222Z,2.30
2019-04-26T02:47:53.705Z,2.27
2019-04-26T02:50:39.913Z,2.70
2019-04-26T02:53:20.438Z,2.60
2019-04-26T02:56:33.625Z,2.80
2019-04-26T02:59:18.827Z,2.20
2019-04-26T03:01:50.752Z,2.67
2019-04-26T03:04:21.830Z,2.50
2019-04-26T03:07:02.904Z,3.47
2019-04-26T03:09:23.911Z,2.87
2019-04-26T03:11:56.188Z,3.73
2019-04-26T03:14:44.826Z,3.10
2019-04-26T03:17:25.200Z,3.33
2019-04-26T03:20:02.615Z,3.37
2019-04-26T03:23:00.890Z,2.90
2019-04-26T03:26:13.932Z,2.73
2019-04-26T03:29:01.639Z,3.50
2019-04-26T03:31:53.524Z,3.53
2019-04-26T03:34:43.150Z,3.70
2019-04-26T03:37:34.492Z,4.20
2019-04-26T03:40:20.119Z,4.33
2019-04-26T03:43:30.996Z,4.13
2019-04-26T03:46:22.000Z,4.30
2019-04-26T03:49:30.221Z,3.83
2019-04-26T03:52:18.430Z,4.00
2019-04-26T03:54:50.660Z,3.60
2019-04-26T03:57:32.359Z,4.77
2019-04-26T04:00:43.388Z,5.00
2019-04-26T04:03:50.312Z,4.90
2019-04-26T04:06:26.491Z,4.83
2019-04-26T04:09:01.419Z,5.00
2019-04-26T04:11:46.527Z,4.53
2019-04-26T04:14:22.615Z,5.13
2019-04-26T04:17:12.335Z,4.67
2019-04-26T04:20:30.956Z,4.93
2019-04-26T04:23:37.515Z,5.57
2019-04-26T04:26:08.810Z,5.37
2019-04-26T04:29:18.676Z,5.40
2019-04-26T04:31:52.004Z,5.33
2019-04-26T04:34:27.888Z,5.47
2019-04-26T04:37:00.443Z,5.37
2019-04-26T04:39:50.074Z,6.00
2019-04-26T04:42:52.516Z,6.07
2019-04-26T04:45:54.389Z,6.10
2019-04-26T04:48:47.065Z,6.67
2019-04-26T04:52:08.650Z,6.77
2019-04-26T04:54:43.264Z,6.00
2019-04-26T04:57:24.146Z,6.33
2019-04-26T05:00:30.767Z,7.10
2019-04-26T05:03:25.976Z,7.20
2019-04-26T05:06:22.235Z,7.30
2019-04-26T05:09:07.689Z,7.27
2019-04-26T05:11:47.627Z,8.40
2019-04-26T05:14:29.826Z,7.20
2019-04-26T05:17:53.933Z,7.83
2019-04-26T05:20:55.455Z,7.63
2019-04-26T05:24:03.424Z,7.20
2019-04-26T05:27:00.350Z,8.20
2019-04-26T05:30:17.358Z,8.70
2019-04-26T05:33:22.635Z,8.00
2019-04-26T05:36:32.045Z,8.10
2019-04-26T05:39:09.707Z,7.67
2019-04-26T05:42:05.135Z,9.37
2019-04-26T05:45:17.442Z,8.17
2019-04-26T05:48:08.480Z,8.90
2019-04-26T05:51:36.538Z,8.70
2019-04-26T05:55:08.359Z,8.13
2019-04-26T05:57:54.255Z,7.50
2019-04-26T06:00:43.326Z,7.47
2019-04-26T06:03:34.753Z,7.50
2019-04-26T06:06:28.663Z,6.83
2019-04-26T06:09:38.265Z,7.30
2019-04-26T06:12:42.479Z,5.77
2019-04-26T06:15:33.778Z,5.70
2019-04-26T06:18:37.585Z,5.47
2019-04-26T06:21:19.526Z,5.03
2019-04-26T06:24:32.234Z,6.47
2019-04-26T06:27:43.250Z,4.50
2019-04-26T06:30:20.098Z,5.40
2019-04-26T06:33:29.314Z,4.50
2019-04-26T06:36:04.326Z,4.40
2019-04-26T06:39:36.147Z,4.80
2019-04-26T06:42:37.793Z,4.30
2019-04-26T06:45:42.775Z,5.47
2019-04-26T06:48:23.378Z,5.50
2019-04-26T06:51:02.764Z,4.80
2019-04-26T06:53:40.334Z,6.63
2019-04-26T06:56:43.518Z,6.10
2019-04-26T06:59:36.554Z,8.47
2019-04-26T07:02:16.010Z,7.53
2019-04-26T07:05:12.821Z,7.20
2019-04-26T07:08:23.167Z,6.77
2019-04-26T07:11:51.317Z,7.97
2019-04-26T07:14:44.958Z,6.07
2019-04-26T07:17:19.994Z,9.60
2019-04-26T07:20:13.573Z,6.87
2019-04-26T07:23:19.890Z,6.53
2019-04-26T07:26:27.830Z,6.70
2019-04-26T07:29:46.740Z,5.60
2019-04-26T07:32:23.814Z,4.70
2019-04-26T07:35:19.582Z,5.40
2019-04-26T07:38:19.230Z,5.33
2019-04-26T07:41:32.389Z,5.73
2019-04-26T07:44:38.535Z,5.60
2019-04-26T07:47:44.610Z,6.57
2019-04-26T07:50:47.056Z,6.63
2019-04-26T07:53:46.151Z,6.00
2019-04-26T07:57:03.088Z,6.20
2019-04-26T08:00:22.042Z,6.73
2019-04-26T08:03:25.351Z,5.97
2019-04-26T08:06:19.916Z,6.67
2019-04-26T08:08:57.933Z,7.13
2019-04-26T08:11:38.347Z,6.00
2019-04-26T08:14:15.730Z,5.80
2019-04-26T08:17:34.510Z,6.60
2019-04-26T08:20:54.118Z,6.60
2019-04-26T08:23:39.686Z,6.07
2019-04-26T08:26:01.870Z,5.90
2019-04-26T08:28:34.950Z,5.83
2019-04-26T08:31:07.882Z,6.37
2019-04-26T08:33:48.460Z,5.50
2019-04-26T08:36:17.673Z,5.23
2019-04-26T08:38:48.752Z,4.50
2019-04-26T08:41:22.598Z,5.47
2019-04-26T08:44:19.393Z,4.70
2019-04-26T08:47:06.087Z,4.30
2019-04-26T08:49:45.129Z,4.63
2019-04-26T08:52:17.514Z,4.90
2019-04-26T08:54:54.338Z,5.10
2019-04-26T08:57:27.677Z,4.50
2019-04-26T08:59:59.946Z,4.10
2019-04-26T09:02:48.349Z,4.40
2019-04-26T09:05:40.032Z,4.37
2019-04-26T09:08:12.175Z,5.00
2019-04-26T09:10:44.326Z,4.10
2019-04-26T09:13:16.148Z,3.60
2019-04-26T09:16:08.309Z,4.60
2019-04-26T09:18:43.597Z,4.50
2019-04-26T09:21:08.733Z,4.43
2019-04-26T09:23:55.898Z,3.90
2019-04-26T09:26:35.397Z,4.13
2019-04-26T09:29:16.738Z,4.00
2019-04-26T09:31:50.498Z,4.37
2019-04-26T09:34:19.183Z,4.10
2019-04-26T09:36:48.547Z,4.80
2019-04-26T09:39:18.251Z,4.33
2019-04-26T09:41:47.434Z,4.80
2019-04-26T09:44:26.323Z,5.27
2019-04-26T09:47:13.622Z,5.27
2019-04-26T09:50:01.750Z,4.50
2019-04-26T09:52:35.314Z,5.50
2019-04-26T09:55:04.634Z,4.77
2019-04-26T09:57:33.771Z,4.97
2019-04-26T10:00:03.646Z,4.40
2019-04-26T10:02:33.815Z,5.10
2019-04-26T10:05:03.821Z,9.07
2019-04-26T10:07:33.347Z,5.43
2019-04-26T10:10:04.178Z,5.07
2019-04-26T10:12:39.846Z,4.53
2019-04-26T10:15:22.388Z,4.73
2019-04-26T10:17:52.148Z,4.10
2019-04-26T10:20:21.538Z,4.13
2019-04-26T10:22:50.894Z,4.37
2019-04-26T10:25:20.107Z,5.40
2019-04-26T10:27:49.297Z,4.50
2019-04-26T10:30:18.601Z,4.73
2019-04-26T10:32:47.694Z,4.80
2019-04-26T10:35:17.528Z,4.40
2019-04-26T10:37:49.148Z,4.63
2019-04-26T10:40:18.427Z,5.20
2019-04-26T10:42:47.646Z,6.03
2019-04-26T10:45:17.311Z,5.70
2019-04-26T10:47:48.562Z,6.10
2019-04-26T10:50:17.709Z,14.10
2019-04-26T10:53:06.163Z,12.23
2019-04-26T10:55:51.636Z,5.57
2019-04-26T10:58:39.850Z,5.20
2019-04-26T11:01:11.871Z,4.87
2019-04-26T11:03:41.538Z,5.53
2019-04-26T11:06:10.687Z,4.83
2019-04-26T11:08:39.777Z,5.67
2019-04-26T11:11:10.538Z,5.40
2019-04-26T11:13:39.994Z,4.30
2019-04-26T11:16:09.203Z,13.00
2019-04-26T11:18:38.390Z,22.07
2019-04-26T11:21:07.611Z,5.13
2019-04-26T11:23:36.792Z,5.50
2019-04-26T11:26:06.296Z,4.70
2019-04-26T11:28:35.606Z,4.80
2019-04-26T11:31:05.219Z,4.17
2019-04-26T11:33:44.410Z,4.67
2019-04-26T11:36:07.465Z,5.27
2019-04-26T11:38:36.274Z,4.70
2019-04-26T11:41:06.829Z,4.77
2019-04-26T11:43:36.329Z,3.83
2019-04-26T11:46:05.683Z,4.83
2019-04-26T11:48:34.934Z,3.90
2019-04-26T11:51:04.121Z,4.17
2019-04-26T11:53:33.607Z,4.00
2019-04-26T11:56:04.642Z,4.90
2019-04-26T11:58:33.659Z,4.80
2019-04-26T12:01:04.323Z,4.50
2019-04-26T12:03:33.433Z,5.40
2019-04-26T12:06:14.784Z,4.47
2019-04-26T12:08:47.498Z,5.27
2019-04-26T12:11:18.488Z,4.47
2019-04-26T12:13:47.994Z,4.77
2019-04-26T12:16:18.873Z,3.70
2019-04-26T12:18:48.049Z,4.20
2019-04-26T12:21:17.246Z,5.20
2019-04-26T12:23:46.639Z,4.27
2019-04-26T12:26:17.253Z,4.37
2019-04-26T12:28:46.726Z,5.33
2019-04-26T12:31:16.421Z,5.40
2019-04-26T12:33:45.642Z,4.80
2019-04-26T12:36:15.150Z,4.83
2019-04-26T12:38:44.279Z,5.10
2019-04-26T12:41:13.407Z,6.67
2019-04-26T12:43:42.666Z,12.30
2019-04-26T12:46:27.232Z,5.47
2019-04-26T12:48:56.035Z,5.90
2019-04-26T12:51:25.162Z,5.00
2019-04-26T12:53:54.561Z,4.77
2019-04-26T12:56:26.676Z,6.03
2019-04-26T12:58:54.965Z,4.33
2019-04-26T13:01:24.173Z,5.50
2019-04-26T13:04:06.474Z,5.90
2019-04-26T13:06:39.390Z,5.63
2019-04-26T13:09:13.482Z,5.30
2019-04-26T13:11:56.549Z,5.77
2019-04-26T13:14:42.951Z,5.77
2019-04-26T13:17:16.088Z,4.53
2019-04-26T13:19:45.585Z,5.73
2019-04-26T13:22:15.294Z,5.30
2019-04-26T13:24:44.414Z,5.00
2019-04-26T13:27:13.535Z,4.93
2019-04-26T13:29:42.757Z,4.50
2019-04-26T13:32:11.890Z,5.10
2019-04-26T13:34:41.087Z,5.33
2019-04-26T13:37:10.274Z,4.53
2019-04-26T13:39:39.422Z,5.40
2019-04-26T13:42:09.761Z,5.10
2019-04-26T13:44:56.874Z,4.60
2019-04-26T13:47:53.870Z,5.00
2019-04-26T13:50:28.263Z,3.33
2019-04-26T13:52:57.547Z,4.50
2019-04-26T13:55:29.522Z,5.07
2019-04-26T13:57:57.830Z,3.73
2019-04-26T14:00:30.006Z,4.13
2019-04-26T14:02:59.205Z,4.20
2019-04-26T14:05:28.351Z,4.50
2019-04-26T14:07:57.630Z,3.73
2019-04-26T14:10:27.019Z,4.33
2019-04-26T14:12:56.118Z,4.33
2019-04-26T14:15:25.346Z,4.50
2019-04-26T14:17:54.642Z,5.00
2019-04-26T14:20:24.472Z,5.87
2019-04-26T14:23:02.046Z,4.47
2019-04-26T14:25:41.221Z,4.53
2019-04-26T14:28:10.355Z,3.23
2019-04-26T14:30:41.849Z,3.90
2019-04-26T14:33:10.685Z,4.13
2019-04-26T14:35:39.790Z,3.47
2019-04-26T14:38:09.333Z,3.93
2019-04-26T14:40:39.276Z,4.20
2019-04-26T14:43:09.266Z,3.37
2019-04-26T14:45:39.957Z,3.03
2019-04-26T14:48:20.115Z,3.23
2019-04-26T14:50:40.665Z,3.50
2019-04-26T14:53:09.769Z,3.13
2019-04-26T14:55:38.918Z,4.60
2019-04-26T14:58:08.191Z,3.20
2019-04-26T15:00:38.934Z,3.20
2019-04-26T15:03:17.277Z,3.00
2019-04-26T15:05:59.848Z,3.00
2019-04-26T15:08:31.956Z,3.03
2019-04-26T15:11:01.183Z,2.60
2019-04-26T15:13:36.192Z,3.20
2019-04-26T15:16:03.977Z,3.20
2019-04-26T15:18:33.875Z,5.20
2019-04-26T15:21:04.308Z,4.37
2019-04-26T15:23:33.743Z,3.13
2019-04-26T15:26:03.278Z,4.07
2019-04-26T15:28:33.235Z,3.13
2019-04-26T15:31:02.484Z,3.97
2019-04-26T15:33:32.522Z,6.37
2019-04-26T15:36:06.495Z,4.10
2019-04-26T15:38:41.188Z,3.63
2019-04-26T15:41:23.583Z,3.17
2019-04-26T15:44:24.863Z,5.00
2019-04-26T15:47:06.351Z,3.70
2019-04-26T15:49:54.769Z,4.00
2019-04-26T15:52:24.242Z,3.37
2019-04-26T15:54:58.941Z,2.93
2019-04-26T15:57:30.670Z,3.70
2019-04-26T15:59:58.116Z,2.90
2019-04-26T16:02:26.504Z,3.87
2019-04-26T16:04:55.674Z,3.17
2019-04-26T16:07:28.807Z,3.43
2019-04-26T16:09:57.474Z,2.90
2019-04-26T16:12:27.250Z,4.00
2019-04-26T16:14:56.431Z,4.00
2019-04-26T16:17:25.967Z,3.40
2019-04-26T16:19:56.196Z,3.27
2019-04-26T16:22:29.994Z,3.97
2019-04-26T16:24:58.260Z,6.40
2019-04-26T16:27:30.919Z,4.50
2019-04-26T16:30:37.286Z,3.27
2019-04-26T16:33:08.273Z,3.60
2019-04-26T16:35:37.747Z,3.90
2019-04-26T16:38:24.536Z,3.83
2019-04-26T16:40:55.135Z,3.47
2019-04-26T16:43:37.003Z,4.23
2019-04-26T16:45:55.269Z,3.37
2019-04-26T16:48:25.807Z,3.43
2019-04-26T16:50:55.241Z,3.33
2019-04-26T16:53:43.840Z,3.27
2019-04-26T16:55:55.638Z,3.50
2019-04-26T16:58:24.888Z,3.60
2019-04-26T17:00:57.259Z,3.27
2019-04-26T17:03:26.269Z,3.13
2019-04-26T17:06:04.918Z,3.50
2019-04-26T17:08:26.737Z,3.20
2019-04-26T17:10:58.993Z,3.10
2019-04-26T17:13:30.033Z,3.00
2019-04-26T17:15:58.120Z,2.70
2019-04-26T17:18:27.447Z,3.03
2019-04-26T17:20:56.630Z,2.87
2019-04-26T17:23:41.974Z,2.73
2019-04-26T17:26:36.466Z,2.13
2019-04-26T17:29:05.677Z,2.53
2019-04-26T17:31:34.845Z,2.27
2019-04-26T17:34:05.186Z,2.83
2019-04-26T17:36:34.731Z,2.70
2019-04-26T17:39:05.385Z,2.50
2019-04-26T17:41:34.567Z,2.80
2019-04-26T17:44:10.661Z,2.67
2019-04-26T17:46:34.833Z,3.23
2019-04-26T17:49:04.221Z,2.50
2019-04-26T17:51:41.698Z,2.73
2019-04-26T17:54:21.169Z,2.77
2019-04-26T17:56:39.435Z,3.03
2019-04-26T17:59:09.323Z,2.70
2019-04-26T18:01:46.914Z,2.53
2019-04-26T18:04:11.123Z,2.70
2019-04-26T18:06:40.397Z,3.43
2019-04-26T18:09:13.237Z,2.97
2019-04-26T18:11:41.212Z,3.50
2019-04-26T18:14:20.882Z,3.40
2019-04-26T18:16:44.701Z,3.60
2019-04-26T18:19:30.476Z,4.00
2019-04-26T18:22:04.323Z,4.27
2019-04-26T18:24:34.983Z,4.57
2019-04-26T18:27:04.723Z,4.40
2019-04-26T18:29:34.098Z,4.03
2019-04-26T18:32:04.557Z,5.10
2019-04-26T18:34:37.164Z,4.70
2019-04-26T18:37:07.323Z,5.50
2019-04-26T18:39:36.250Z,5.23
2019-04-26T18:42:05.927Z,5.00
2019-04-26T18:44:38.542Z,5.20
2019-04-26T18:47:20.299Z,4.47
2019-04-26T18:49:45.884Z,5.03
2019-04-26T18:52:15.054Z,4.80
2019-04-26T18:55:01.342Z,4.77
2019-04-26T18:57:30.794Z,5.40
2019-04-26T18:59:59.905Z,5.73
2019-04-26T19:02:29.345Z,5.77
2019-04-26T19:04:58.734Z,5.70
2019-04-26T19:07:32.361Z,6.00
2019-04-26T19:10:02.832Z,5.97
2019-04-26T19:12:30.100Z,6.43
2019-04-26T19:15:24.050Z,5.93
2019-04-26T19:18:04.316Z,5.70
2019-04-26T19:20:51.331Z,5.07
2019-04-26T19:23:24.464Z,5.03
2019-04-26T19:25:52.083Z,5.80
2019-04-26T19:28:22.361Z,5.70
2019-04-26T19:30:53.199Z,5.97
2019-04-26T19:33:22.514Z,7.03
2019-04-26T19:35:51.907Z,5.40
2019-04-26T19:38:21.386Z,6.43
2019-04-26T19:40:52.017Z,5.37
2019-04-26T19:43:30.270Z,6.53
2019-04-26T19:46:26.459Z,6.20
2019-04-26T19:49:17.564Z,6.13
2019-04-26T19:52:17.606Z,5.97
2019-04-26T19:54:53.027Z,6.10
2019-04-26T19:57:25.586Z,6.47
2019-04-26T19:59:54.692Z,5.80
2019-04-26T20:02:26.734Z,5.30
2019-04-26T20:04:54.814Z,6.90
2019-04-26T20:07:28.118Z,6.60
2019-04-26T20:09:56.302Z,5.53
2019-04-26T20:12:29.497Z,6.10
2019-04-26T20:14:58.525Z,6.40
2019-04-26T20:17:28.170Z,5.40
2019-04-26T20:19:57.486Z,5.87
2019-04-26T20:22:30.018Z,5.67
2019-04-26T20:25:11.909Z,6.37
2019-04-26T20:27:41.400Z,6.10
2019-04-26T20:30:13.950Z,6.03
2019-04-26T20:32:44.684Z,6.43
2019-04-26T20:35:19.853Z,6.47
2019-04-26T20:37:47.019Z,6.20
2019-04-26T20:40:22.179Z,6.93
2019-04-26T20:42:47.374Z,6.70
2019-04-26T20:45:17.094Z,6.70
2019-04-26T20:47:46.779Z,5.97
2019-04-26T20:50:17.433Z,6.50
2019-04-26T20:52:46.841Z,6.50
2019-04-26T20:55:16.407Z,7.00
2019-04-26T20:57:45.554Z,7.07
2019-04-26T21:00:15.858Z,7.50
2019-04-26T21:02:45.558Z,6.93
2019-04-26T21:05:14.998Z,6.70
2019-04-26T21:07:49.445Z,7.37
2019-04-26T21:10:21.704Z,8.40
2019-04-26T21:12:47.497Z,7.93
2019-04-26T21:15:20.206Z,7.93
2019-04-26T21:17:48.530Z,10.23
2019-04-26T21:20:18.307Z,10.57
2019-04-26T21:22:47.777Z,10.90
2019-04-26T21:25:27.665Z,13.67
2019-04-26T21:28:02.415Z,12.30
2019-04-26T21:30:51.594Z,13.03
2019-04-26T21:33:35.357Z,12.13
2019-04-26T21:36:13.596Z,14.07
2019-04-26T21:39:09.608Z,13.97
2019-04-26T21:41:40.438Z,14.03
2019-04-26T21:44:12.259Z,14.50
2019-04-26T21:46:43.475Z,16.60
2019-04-26T21:49:19.984Z,16.73
2019-04-26T21:51:50.912Z,17.00
2019-04-26T21:54:18.010Z,15.43
2019-04-26T21:56:49.627Z,17.43
2019-04-26T21:59:18.557Z,16.53
2019-04-26T22:01:51.828Z,15.97
2019-04-26T22:04:18.942Z,17.40
2019-04-26T22:06:48.687Z,18.17
2019-04-26T22:09:28.468Z,17.90
2019-04-26T22:11:56.556Z,17.53
2019-04-26T22:14:28.805Z,17.63
2019-04-26T22:17:05.809Z,17.80
2019-04-26T22:19:53.951Z,17.23
2019-04-26T22:22:37.243Z,17.80
2019-04-26T22:25:04.342Z,16.90
2019-04-26T22:27:33.494Z,16.50
2019-04-26T22:30:04.514Z,17.60
2019-04-26T22:32:34.177Z,15.30
2019-04-26T22:35:03.391Z,16.20
2019-04-26T22:37:33.731Z,15.23
2019-04-26T22:40:03.779Z,14.47
2019-04-26T22:42:39.935Z,16.83
2019-04-26T22:45:17.506Z,14.37
2019-04-26T22:47:53.576Z,13.30
2019-04-26T22:50:25.017Z,13.70
2019-04-26T22:52:54.797Z,13.37
2019-04-26T22:55:27.345Z,13.57
2019-04-26T22:57:55.255Z,14.97
2019-04-26T23:00:29.499Z,12.40
2019-04-26T23:03:02.406Z,14.10
2019-04-26T23:05:30.711Z,11.77
2019-04-26T23:08:00.992Z,12.60
2019-04-26T23:10:36.352Z,12.83
2019-04-26T23:13:14.966Z,11.97
2019-04-26T23:15:55.783Z,12.23
2019-04-26T23:18:46.747Z,11.20
2019-04-26T23:21:45.467Z,11.00
2019-04-26T23:24:15.912Z,12.20
2019-04-26T23:26:45.338Z,10.30
2019-04-26T23:29:18.086Z,10.73
2019-04-26T23:31:45.549Z,10.40
2019-04-26T23:34:15.022Z,10.80
2019-04-26T23:36:44.125Z,9.03
2019-04-26T23:39:13.433Z,9.47
2019-04-26T23:41:44.519Z,10.00
2019-04-26T23:44:13.829Z,10.23
2019-04-26T23:46:43.346Z,9.40
2019-04-26T23:49:14.353Z,10.40
2019-04-26T23:51:45.820Z,8.93
2019-04-26T23:54:14.782Z,8.90
2019-04-26T23:56:43.895Z,8.23
2019-04-26T23:59:15.027Z,8.27
